sensor_id;sensor_type;location;lat;lon;timestamp;temperature;humidity
80676;SHT30;70041;46.088;18.268;2023-09-12T00:00:05;18.67;67.94
80676;SHT30;70041;46.088;18.268;2023-09-12T00:02:30;18.67;67.61
80676;SHT30;70041;46.088;18.268;2023-09-12T00:04:56;18.75;67.11
80676;SHT30;70041;46.088;18.268;2023-09-12T00:07:21;18.74;66.88
80676;SHT30;70041;46.088;18.268;2023-09-12T00:09:47;18.69;67.69
80676;SHT30;70041;46.088;18.268;2023-09-12T00:12:14;18.65;67.24
80676;SHT30;70041;46.088;18.268;2023-09-12T00:14:40;18.55;68.49
80676;SHT30;70041;46.088;18.268;2023-09-12T00:17:06;18.51;68.15
80676;SHT30;70041;46.088;18.268;2023-09-12T00:19:31;18.50;68.36
80676;SHT30;70041;46.088;18.268;2023-09-12T00:21:56;18.51;67.73
80676;SHT30;70041;46.088;18.268;2023-09-12T00:24:22;18.47;68.85
80676;SHT30;70041;46.088;18.268;2023-09-12T00:26:47;18.47;68.48
80676;SHT30;70041;46.088;18.268;2023-09-12T00:29:13;18.47;68.72
80676;SHT30;70041;46.088;18.268;2023-09-12T00:31:38;18.44;68.52
80676;SHT30;70041;46.088;18.268;2023-09-12T00:34:03;18.48;67.55
80676;SHT30;70041;46.088;18.268;2023-09-12T00:36:29;18.50;67.60
80676;SHT30;70041;46.088;18.268;2023-09-12T00:38:54;18.43;67.61
80676;SHT30;70041;46.088;18.268;2023-09-12T00:41:20;18.34;68.69
80676;SHT30;70041;46.088;18.268;2023-09-12T00:43:45;18.20;68.91
80676;SHT30;70041;46.088;18.268;2023-09-12T00:46:13;18.14;68.88
80676;SHT30;70041;46.088;18.268;2023-09-12T00:48:43;18.07;70.31
80676;SHT30;70041;46.088;18.268;2023-09-12T00:51:08;18.12;69.45
80676;SHT30;70041;46.088;18.268;2023-09-12T00:53:35;18.13;70.46
80676;SHT30;70041;46.088;18.268;2023-09-12T00:56:01;18.12;70.33
80676;SHT30;70041;46.088;18.268;2023-09-12T00:58:27;18.14;68.71
80676;SHT30;70041;46.088;18.268;2023-09-12T01:00:53;18.16;68.43
80676;SHT30;70041;46.088;18.268;2023-09-12T01:03:18;18.26;69.86
80676;SHT30;70041;46.088;18.268;2023-09-12T01:05:44;18.24;68.44
80676;SHT30;70041;46.088;18.268;2023-09-12T01:08:11;18.26;69.24
80676;SHT30;70041;46.088;18.268;2023-09-12T01:10:37;18.21;69.61
80676;SHT30;70041;46.088;18.268;2023-09-12T01:13:03;18.16;70.32
80676;SHT30;70041;46.088;18.268;2023-09-12T01:15:28;18.12;70.30
80676;SHT30;70041;46.088;18.268;2023-09-12T01:17:54;18.17;69.03
80676;SHT30;70041;46.088;18.268;2023-09-12T01:20:24;18.20;69.26
80676;SHT30;70041;46.088;18.268;2023-09-12T01:28:45;18.09;69.76
80676;SHT30;70041;46.088;18.268;2023-09-12T01:31:11;18.07;69.04
80676;SHT30;70041;46.088;18.268;2023-09-12T01:33:37;18.03;69.21
80676;SHT30;70041;46.088;18.268;2023-09-12T01:36:03;17.99;69.78
80676;SHT30;70041;46.088;18.268;2023-09-12T01:38:28;18.04;69.48
80676;SHT30;70041;46.088;18.268;2023-09-12T01:40:55;18.10;69.95
80676;SHT30;70041;46.088;18.268;2023-09-12T01:43:23;18.12;69.77
80676;SHT30;70041;46.088;18.268;2023-09-12T01:45:54;18.10;69.99
80676;SHT30;70041;46.088;18.268;2023-09-12T01:48:22;18.02;70.02
80676;SHT30;70041;46.088;18.268;2023-09-12T01:50:48;18.02;69.92
80676;SHT30;70041;46.088;18.268;2023-09-12T01:53:14;17.99;70.39
80676;SHT30;70041;46.088;18.268;2023-09-12T01:55:42;18.02;69.32
80676;SHT30;70041;46.088;18.268;2023-09-12T01:58:10;17.96;70.18
80676;SHT30;70041;46.088;18.268;2023-09-12T02:00:36;17.82;70.72
80676;SHT30;70041;46.088;18.268;2023-09-12T02:03:03;17.87;69.85
80676;SHT30;70041;46.088;18.268;2023-09-12T02:05:28;17.99;70.25
80676;SHT30;70041;46.088;18.268;2023-09-12T02:07:53;17.90;70.24
80676;SHT30;70041;46.088;18.268;2023-09-12T02:10:19;17.86;70.81
80676;SHT30;70041;46.088;18.268;2023-09-12T02:12:44;17.86;70.37
80676;SHT30;70041;46.088;18.268;2023-09-12T02:15:10;17.87;70.20
80676;SHT30;70041;46.088;18.268;2023-09-12T02:17:35;17.86;70.28
80676;SHT30;70041;46.088;18.268;2023-09-12T02:20:01;17.85;69.91
80676;SHT30;70041;46.088;18.268;2023-09-12T02:22:26;17.79;70.30
80676;SHT30;70041;46.088;18.268;2023-09-12T02:24:51;17.73;69.66
80676;SHT30;70041;46.088;18.268;2023-09-12T02:27:17;17.73;69.50
80676;SHT30;70041;46.088;18.268;2023-09-12T02:29:43;17.68;69.92
80676;SHT30;70041;46.088;18.268;2023-09-12T02:32:09;17.72;69.32
80676;SHT30;70041;46.088;18.268;2023-09-12T02:34:34;17.80;69.77
80676;SHT30;70041;46.088;18.268;2023-09-12T02:37:00;17.90;68.32
80676;SHT30;70041;46.088;18.268;2023-09-12T02:39:26;18.06;68.64
80676;SHT30;70041;46.088;18.268;2023-09-12T02:41:51;18.00;69.12
80676;SHT30;70041;46.088;18.268;2023-09-12T02:44:17;18.03;68.55
80676;SHT30;70041;46.088;18.268;2023-09-12T02:46:42;18.02;68.89
80676;SHT30;70041;46.088;18.268;2023-09-12T02:49:08;17.89;69.63
80676;SHT30;70041;46.088;18.268;2023-09-12T02:51:33;17.82;70.21
80676;SHT30;70041;46.088;18.268;2023-09-12T02:53:58;17.70;70.57
80676;SHT30;70041;46.088;18.268;2023-09-12T02:56:24;17.65;70.61
80676;SHT30;70041;46.088;18.268;2023-09-12T02:58:49;17.65;70.74
80676;SHT30;70041;46.088;18.268;2023-09-12T03:01:19;17.56;71.30
80676;SHT30;70041;46.088;18.268;2023-09-12T03:03:48;17.66;70.29
80676;SHT30;70041;46.088;18.268;2023-09-12T03:06:14;17.72;70.73
80676;SHT30;70041;46.088;18.268;2023-09-12T03:08:40;17.62;70.96
80676;SHT30;70041;46.088;18.268;2023-09-12T03:11:05;17.59;71.07
80676;SHT30;70041;46.088;18.268;2023-09-12T03:13:33;17.58;71.06
80676;SHT30;70041;46.088;18.268;2023-09-12T03:15:59;17.55;71.27
80676;SHT30;70041;46.088;18.268;2023-09-12T03:18:24;17.51;71.36
80676;SHT30;70041;46.088;18.268;2023-09-12T03:20:50;17.51;71.38
80676;SHT30;70041;46.088;18.268;2023-09-12T03:23:15;17.52;71.51
80676;SHT30;70041;46.088;18.268;2023-09-12T03:25:40;17.52;71.21
80676;SHT30;70041;46.088;18.268;2023-09-12T03:28:07;17.52;71.32
80676;SHT30;70041;46.088;18.268;2023-09-12T03:30:33;17.59;70.46
80676;SHT30;70041;46.088;18.268;2023-09-12T03:32:59;17.59;70.85
80676;SHT30;70041;46.088;18.268;2023-09-12T03:35:25;17.56;71.24
80676;SHT30;70041;46.088;18.268;2023-09-12T03:37:51;17.49;71.48
80676;SHT30;70041;46.088;18.268;2023-09-12T03:40:16;17.49;71.45
80676;SHT30;70041;46.088;18.268;2023-09-12T03:42:41;17.43;71.92
80676;SHT30;70041;46.088;18.268;2023-09-12T03:45:07;17.36;71.89
80676;SHT30;70041;46.088;18.268;2023-09-12T03:47:33;17.35;71.72
80676;SHT30;70041;46.088;18.268;2023-09-12T03:49:58;17.31;71.79
80676;SHT30;70041;46.088;18.268;2023-09-12T03:52:23;17.32;72.37
80676;SHT30;70041;46.088;18.268;2023-09-12T03:54:49;17.28;72.10
80676;SHT30;70041;46.088;18.268;2023-09-12T03:57:16;17.22;72.52
80676;SHT30;70041;46.088;18.268;2023-09-12T03:59:41;17.27;72.44
80676;SHT30;70041;46.088;18.268;2023-09-12T04:02:08;17.28;72.40
80676;SHT30;70041;46.088;18.268;2023-09-12T04:04:33;17.27;72.39
80676;SHT30;70041;46.088;18.268;2023-09-12T04:06:59;17.21;72.71
80676;SHT30;70041;46.088;18.268;2023-09-12T04:09:24;17.17;72.70
80676;SHT30;70041;46.088;18.268;2023-09-12T04:11:50;17.08;73.34
80676;SHT30;70041;46.088;18.268;2023-09-12T04:14:15;17.01;73.18
80676;SHT30;70041;46.088;18.268;2023-09-12T04:16:40;16.95;73.63
80676;SHT30;70041;46.088;18.268;2023-09-12T04:19:06;17.00;73.30
80676;SHT30;70041;46.088;18.268;2023-09-12T04:21:31;16.95;73.06
80676;SHT30;70041;46.088;18.268;2023-09-12T04:23:57;16.87;73.53
80676;SHT30;70041;46.088;18.268;2023-09-12T04:26:22;16.85;73.44
80676;SHT30;70041;46.088;18.268;2023-09-12T04:28:48;16.85;72.79
80676;SHT30;70041;46.088;18.268;2023-09-12T04:31:13;16.94;72.76
80676;SHT30;70041;46.088;18.268;2023-09-12T04:33:39;16.98;72.81
80676;SHT30;70041;46.088;18.268;2023-09-12T04:36:04;16.91;73.28
80676;SHT30;70041;46.088;18.268;2023-09-12T04:38:30;16.88;73.47
80676;SHT30;70041;46.088;18.268;2023-09-12T04:40:56;16.88;73.60
80676;SHT30;70041;46.088;18.268;2023-09-12T04:43:22;16.91;73.38
80676;SHT30;70041;46.088;18.268;2023-09-12T04:45:48;16.97;73.86
80676;SHT30;70041;46.088;18.268;2023-09-12T04:48:16;17.06;73.63
80676;SHT30;70041;46.088;18.268;2023-09-12T04:50:41;17.06;73.78
80676;SHT30;70041;46.088;18.268;2023-09-12T04:53:07;17.11;73.90
80676;SHT30;70041;46.088;18.268;2023-09-12T04:55:38;17.14;73.97
80676;SHT30;70041;46.088;18.268;2023-09-12T04:58:05;17.19;74.17
80676;SHT30;70041;46.088;18.268;2023-09-12T05:00:31;17.22;73.30
80676;SHT30;70041;46.088;18.268;2023-09-12T05:02:57;17.28;73.91
80676;SHT30;70041;46.088;18.268;2023-09-12T05:05:23;17.28;74.07
80676;SHT30;70041;46.088;18.268;2023-09-12T05:07:49;17.31;73.85
80676;SHT30;70041;46.088;18.268;2023-09-12T05:10:16;17.34;73.39
80676;SHT30;70041;46.088;18.268;2023-09-12T05:12:41;17.34;73.70
80676;SHT30;70041;46.088;18.268;2023-09-12T05:15:07;17.39;73.69
80676;SHT30;70041;46.088;18.268;2023-09-12T05:17:32;17.34;74.18
80676;SHT30;70041;46.088;18.268;2023-09-12T05:19:58;17.36;74.59
80676;SHT30;70041;46.088;18.268;2023-09-12T05:22:23;17.43;74.50
80676;SHT30;70041;46.088;18.268;2023-09-12T05:24:49;17.49;74.35
80676;SHT30;70041;46.088;18.268;2023-09-12T05:27:14;17.53;74.81
80676;SHT30;70041;46.088;18.268;2023-09-12T05:29:40;17.55;74.71
80676;SHT30;70041;46.088;18.268;2023-09-12T05:32:05;17.59;74.58
80676;SHT30;70041;46.088;18.268;2023-09-12T05:34:31;17.63;74.78
80676;SHT30;70041;46.088;18.268;2023-09-12T05:36:57;17.70;74.37
80676;SHT30;70041;46.088;18.268;2023-09-12T05:39:22;17.83;74.37
80676;SHT30;70041;46.088;18.268;2023-09-12T05:41:48;17.86;74.40
80676;SHT30;70041;46.088;18.268;2023-09-12T05:44:14;17.90;74.21
80676;SHT30;70041;46.088;18.268;2023-09-12T05:46:45;17.97;74.47
80676;SHT30;70041;46.088;18.268;2023-09-12T05:49:11;18.12;74.30
80676;SHT30;70041;46.088;18.268;2023-09-12T05:51:36;18.27;74.19
80676;SHT30;70041;46.088;18.268;2023-09-12T05:54:01;18.30;74.05
80676;SHT30;70041;46.088;18.268;2023-09-12T05:56:28;18.37;73.88
80676;SHT30;70041;46.088;18.268;2023-09-12T05:58:54;18.47;73.78
80676;SHT30;70041;46.088;18.268;2023-09-12T06:01:19;18.54;73.46
80676;SHT30;70041;46.088;18.268;2023-09-12T06:03:45;18.67;73.75
80676;SHT30;70041;46.088;18.268;2023-09-12T06:06:10;18.79;72.85
80676;SHT30;70041;46.088;18.268;2023-09-12T06:08:35;18.98;72.75
80676;SHT30;70041;46.088;18.268;2023-09-12T06:11:01;19.08;72.62
80676;SHT30;70041;46.088;18.268;2023-09-12T06:13:26;19.19;72.71
80676;SHT30;70041;46.088;18.268;2023-09-12T06:15:52;19.32;72.19
80676;SHT30;70041;46.088;18.268;2023-09-12T06:18:17;19.45;72.09
80676;SHT30;70041;46.088;18.268;2023-09-12T06:20:43;19.56;71.63
80676;SHT30;70041;46.088;18.268;2023-09-12T06:23:09;19.71;70.31
80676;SHT30;70041;46.088;18.268;2023-09-12T06:25:35;19.93;65.92
80676;SHT30;70041;46.088;18.268;2023-09-12T06:28:00;20.08;65.74
80676;SHT30;70041;46.088;18.268;2023-09-12T06:30:26;20.24;66.40
80676;SHT30;70041;46.088;18.268;2023-09-12T06:32:51;20.39;64.79
80676;SHT30;70041;46.088;18.268;2023-09-12T06:35:17;20.72;64.26
80676;SHT30;70041;46.088;18.268;2023-09-12T06:37:43;21.03;63.54
80676;SHT30;70041;46.088;18.268;2023-09-12T06:40:09;21.16;62.94
80676;SHT30;70041;46.088;18.268;2023-09-12T06:42:35;21.36;62.39
80676;SHT30;70041;46.088;18.268;2023-09-12T06:45:00;21.49;61.95
80676;SHT30;70041;46.088;18.268;2023-09-12T06:47:25;21.50;63.76
80676;SHT30;70041;46.088;18.268;2023-09-12T06:49:51;21.60;61.40
80676;SHT30;70041;46.088;18.268;2023-09-12T06:52:16;21.65;61.59
80676;SHT30;70041;46.088;18.268;2023-09-12T06:54:42;21.74;62.71
80676;SHT30;70041;46.088;18.268;2023-09-12T06:57:07;21.82;60.14
80676;SHT30;70041;46.088;18.268;2023-09-12T06:59:32;21.90;59.89
80676;SHT30;70041;46.088;18.268;2023-09-12T07:01:58;21.97;60.04
80676;SHT30;70041;46.088;18.268;2023-09-12T07:04:24;22.11;60.65
80676;SHT30;70041;46.088;18.268;2023-09-12T07:06:49;22.18;60.68
80676;SHT30;70041;46.088;18.268;2023-09-12T07:09:16;22.31;61.99
80676;SHT30;70041;46.088;18.268;2023-09-12T07:11:42;22.57;60.36
80676;SHT30;70041;46.088;18.268;2023-09-12T07:14:08;22.67;60.34
80676;SHT30;70041;46.088;18.268;2023-09-12T07:16:35;22.69;58.88
80676;SHT30;70041;46.088;18.268;2023-09-12T07:19:01;22.83;58.09
80676;SHT30;70041;46.088;18.268;2023-09-12T07:21:26;22.94;57.75
80676;SHT30;70041;46.088;18.268;2023-09-12T07:23:51;23.25;56.66
80676;SHT30;70041;46.088;18.268;2023-09-12T07:26:17;23.28;57.14
80676;SHT30;70041;46.088;18.268;2023-09-12T07:28:42;23.51;55.61
80676;SHT30;70041;46.088;18.268;2023-09-12T07:31:08;23.65;53.69
80676;SHT30;70041;46.088;18.268;2023-09-12T07:33:33;23.75;54.73
80676;SHT30;70041;46.088;18.268;2023-09-12T07:35:59;23.79;53.73
80676;SHT30;70041;46.088;18.268;2023-09-12T07:38:28;23.81;53.90
80676;SHT30;70041;46.088;18.268;2023-09-12T07:40:56;23.95;53.49
80676;SHT30;70041;46.088;18.268;2023-09-12T07:43:21;24.06;52.69
80676;SHT30;70041;46.088;18.268;2023-09-12T07:45:46;23.99;53.98
80676;SHT30;70041;46.088;18.268;2023-09-12T07:48:14;24.08;53.54
80676;SHT30;70041;46.088;18.268;2023-09-12T07:50:40;24.20;53.26
80676;SHT30;70041;46.088;18.268;2023-09-12T07:53:06;24.20;52.74
80676;SHT30;70041;46.088;18.268;2023-09-12T07:55:32;24.26;51.26
80676;SHT30;70041;46.088;18.268;2023-09-12T07:58:02;24.32;52.61
80676;SHT30;70041;46.088;18.268;2023-09-12T08:00:27;24.53;53.83
80676;SHT30;70041;46.088;18.268;2023-09-12T08:02:53;24.60;51.01
80676;SHT30;70041;46.088;18.268;2023-09-12T08:05:18;24.60;52.15
80676;SHT30;70041;46.088;18.268;2023-09-12T08:07:44;24.94;49.80
80676;SHT30;70041;46.088;18.268;2023-09-12T08:10:10;25.10;49.24
80676;SHT30;70041;46.088;18.268;2023-09-12T08:12:36;25.14;49.74
80676;SHT30;70041;46.088;18.268;2023-09-12T08:15:06;25.11;50.28
80676;SHT30;70041;46.088;18.268;2023-09-12T08:17:31;25.32;48.89
80676;SHT30;70041;46.088;18.268;2023-09-12T08:19:57;25.57;50.06
80676;SHT30;70041;46.088;18.268;2023-09-12T08:22:22;25.61;47.59
80676;SHT30;70041;46.088;18.268;2023-09-12T08:24:48;25.65;48.49
80676;SHT30;70041;46.088;18.268;2023-09-12T08:27:13;25.88;47.93
80676;SHT30;70041;46.088;18.268;2023-09-12T08:29:38;25.99;46.86
80676;SHT30;70041;46.088;18.268;2023-09-12T08:32:04;26.01;45.88
80676;SHT30;70041;46.088;18.268;2023-09-12T08:34:30;25.99;45.48
80676;SHT30;70041;46.088;18.268;2023-09-12T08:36:55;26.14;46.82
80676;SHT30;70041;46.088;18.268;2023-09-12T08:39:25;26.37;46.06
80676;SHT30;70041;46.088;18.268;2023-09-12T08:41:51;26.31;45.77
80676;SHT30;70041;46.088;18.268;2023-09-12T08:44:17;26.36;44.57
80676;SHT30;70041;46.088;18.268;2023-09-12T08:46:44;26.57;43.27
80676;SHT30;70041;46.088;18.268;2023-09-12T08:49:10;26.70;44.62
80676;SHT30;70041;46.088;18.268;2023-09-12T08:51:39;26.90;42.98
80676;SHT30;70041;46.088;18.268;2023-09-12T08:54:05;27.01;43.91
80676;SHT30;70041;46.088;18.268;2023-09-12T08:56:32;27.08;43.84
80676;SHT30;70041;46.088;18.268;2023-09-12T08:58:58;27.18;42.96
80676;SHT30;70041;46.088;18.268;2023-09-12T09:01:25;27.16;43.05
80676;SHT30;70041;46.088;18.268;2023-09-12T09:03:54;27.22;41.92
80676;SHT30;70041;46.088;18.268;2023-09-12T09:06:21;27.21;42.01
80676;SHT30;70041;46.088;18.268;2023-09-12T09:08:48;27.18;41.51
80676;SHT30;70041;46.088;18.268;2023-09-12T09:11:14;27.18;41.90
80676;SHT30;70041;46.088;18.268;2023-09-12T09:13:39;27.28;41.52
80676;SHT30;70041;46.088;18.268;2023-09-12T09:19:03;27.38;41.00
80676;SHT30;70041;46.088;18.268;2023-09-12T09:21:32;27.59;42.55
80676;SHT30;70041;46.088;18.268;2023-09-12T09:24:04;27.92;39.63
80676;SHT30;70041;46.088;18.268;2023-09-12T09:29:09;27.92;38.31
80676;SHT30;70041;46.088;18.268;2023-09-12T09:31:35;28.01;40.02
80676;SHT30;70041;46.088;18.268;2023-09-12T09:34:03;28.14;38.24
80676;SHT30;70041;46.088;18.268;2023-09-12T09:36:31;28.15;37.20
80676;SHT30;70041;46.088;18.268;2023-09-12T09:38:58;28.15;37.17
80676;SHT30;70041;46.088;18.268;2023-09-12T09:41:24;28.18;37.14
80676;SHT30;70041;46.088;18.268;2023-09-12T09:43:51;28.25;36.52
80676;SHT30;70041;46.088;18.268;2023-09-12T09:46:20;28.34;36.61
80676;SHT30;70041;46.088;18.268;2023-09-12T09:48:50;28.44;36.15
80676;SHT30;70041;46.088;18.268;2023-09-12T09:51:15;28.49;36.05
80676;SHT30;70041;46.088;18.268;2023-09-12T09:53:41;28.49;36.84
80676;SHT30;70041;46.088;18.268;2023-09-12T09:56:12;28.80;36.78
80676;SHT30;70041;46.088;18.268;2023-09-12T09:58:47;28.92;37.35
80676;SHT30;70041;46.088;18.268;2023-09-12T10:01:17;28.86;34.92
80676;SHT30;70041;46.088;18.268;2023-09-12T10:03:46;28.94;37.03
80676;SHT30;70041;46.088;18.268;2023-09-12T10:06:13;29.02;35.33
80676;SHT30;70041;46.088;18.268;2023-09-12T10:08:40;29.20;36.43
80676;SHT30;70041;46.088;18.268;2023-09-12T10:11:08;29.36;36.54
80676;SHT30;70041;46.088;18.268;2023-09-12T10:13:35;29.53;37.55
80676;SHT30;70041;46.088;18.268;2023-09-12T10:16:03;29.47;36.04
80676;SHT30;70041;46.088;18.268;2023-09-12T10:18:35;29.64;36.89
80676;SHT30;70041;46.088;18.268;2023-09-12T10:21:11;30.04;35.63
80676;SHT30;70041;46.088;18.268;2023-09-12T10:23:41;30.22;36.14
80676;SHT30;70041;46.088;18.268;2023-09-12T10:26:13;30.15;35.06
80676;SHT30;70041;46.088;18.268;2023-09-12T10:28:42;30.18;34.26
80676;SHT30;70041;46.088;18.268;2023-09-12T10:31:09;30.08;35.65
80676;SHT30;70041;46.088;18.268;2023-09-12T10:33:36;30.15;35.34
80676;SHT30;70041;46.088;18.268;2023-09-12T10:36:05;30.40;34.77
80676;SHT30;70041;46.088;18.268;2023-09-12T10:38:33;30.59;34.75
80676;SHT30;70041;46.088;18.268;2023-09-12T10:41:02;30.93;33.03
80676;SHT30;70041;46.088;18.268;2023-09-12T10:43:29;31.31;31.07
80676;SHT30;70041;46.088;18.268;2023-09-12T10:46:00;31.67;30.33
80676;SHT30;70041;46.088;18.268;2023-09-12T10:48:27;32.35;29.31
80676;SHT30;70041;46.088;18.268;2023-09-12T10:50:57;32.26;30.32
80676;SHT30;70041;46.088;18.268;2023-09-12T10:53:23;32.67;30.02
80676;SHT30;70041;46.088;18.268;2023-09-12T10:56:00;33.15;29.52
80676;SHT30;70041;46.088;18.268;2023-09-12T10:58:26;32.63;29.60
80676;SHT30;70041;46.088;18.268;2023-09-12T11:03:51;31.80;31.13
80676;SHT30;70041;46.088;18.268;2023-09-12T11:06:28;31.61;31.03
80676;SHT30;70041;46.088;18.268;2023-09-12T11:09:22;31.68;31.93
80676;SHT30;70041;46.088;18.268;2023-09-12T11:11:55;31.34;31.84
80676;SHT30;70041;46.088;18.268;2023-09-12T11:14:21;31.58;31.54
80676;SHT30;70041;46.088;18.268;2023-09-12T11:19:45;31.68;30.50
80676;SHT30;70041;46.088;18.268;2023-09-12T11:22:30;31.91;31.70
80676;SHT30;70041;46.088;18.268;2023-09-12T11:24:57;32.13;31.68
80676;SHT30;70041;46.088;18.268;2023-09-12T11:27:31;32.16;31.79
80676;SHT30;70041;46.088;18.268;2023-09-12T11:30:03;32.23;32.26
80676;SHT30;70041;46.088;18.268;2023-09-12T11:32:35;32.08;31.23
80676;SHT30;70041;46.088;18.268;2023-09-12T11:35:05;32.06;31.12
80676;SHT30;70041;46.088;18.268;2023-09-12T11:37:32;31.98;30.96
80676;SHT30;70041;46.088;18.268;2023-09-12T11:39:58;31.91;30.85
80676;SHT30;70041;46.088;18.268;2023-09-12T11:42:24;31.78;31.39
80676;SHT30;70041;46.088;18.268;2023-09-12T11:44:53;31.51;30.41
80676;SHT30;70041;46.088;18.268;2023-09-12T11:47:19;31.29;31.72
80676;SHT30;70041;46.088;18.268;2023-09-12T11:49:45;31.47;32.97
80676;SHT30;70041;46.088;18.268;2023-09-12T11:52:15;31.62;31.97
80676;SHT30;70041;46.088;18.268;2023-09-12T11:54:45;31.61;31.20
80676;SHT30;70041;46.088;18.268;2023-09-12T11:57:12;31.54;32.12
80676;SHT30;70041;46.088;18.268;2023-09-12T11:59:40;31.42;32.24
80676;SHT30;70041;46.088;18.268;2023-09-12T12:02:07;31.23;33.00
80676;SHT30;70041;46.088;18.268;2023-09-12T12:04:33;31.14;32.84
80676;SHT30;70041;46.088;18.268;2023-09-12T12:06:59;31.16;34.30
80676;SHT30;70041;46.088;18.268;2023-09-12T12:09:26;31.21;33.48
80676;SHT30;70041;46.088;18.268;2023-09-12T12:11:52;31.27;33.29
80676;SHT30;70041;46.088;18.268;2023-09-12T12:14:17;31.35;32.65
80676;SHT30;70041;46.088;18.268;2023-09-12T12:16:45;31.31;32.04
80676;SHT30;70041;46.088;18.268;2023-09-12T12:19:12;31.33;32.50
80676;SHT30;70041;46.088;18.268;2023-09-12T12:21:39;31.19;32.28
80676;SHT30;70041;46.088;18.268;2023-09-12T12:24:05;31.24;32.51
80676;SHT30;70041;46.088;18.268;2023-09-12T12:26:33;31.21;31.52
80676;SHT30;70041;46.088;18.268;2023-09-12T12:29:00;31.24;32.16
80676;SHT30;70041;46.088;18.268;2023-09-12T12:31:26;31.58;32.42
80676;SHT30;70041;46.088;18.268;2023-09-12T12:33:56;31.84;31.45
80676;SHT30;70041;46.088;18.268;2023-09-12T12:36:22;32.40;30.18
80676;SHT30;70041;46.088;18.268;2023-09-12T12:38:49;33.38;28.74
80676;SHT30;70041;46.088;18.268;2023-09-12T12:41:23;33.98;27.52
80676;SHT30;70041;46.088;18.268;2023-09-12T12:43:50;34.06;27.93
80676;SHT30;70041;46.088;18.268;2023-09-12T12:46:20;34.10;28.21
80676;SHT30;70041;46.088;18.268;2023-09-12T12:48:47;33.86;27.86
80676;SHT30;70041;46.088;18.268;2023-09-12T12:51:25;34.50;27.47
80676;SHT30;70041;46.088;18.268;2023-09-12T12:53:55;35.48;27.73
80676;SHT30;70041;46.088;18.268;2023-09-12T12:56:28;36.25;25.67
80676;SHT30;70041;46.088;18.268;2023-09-12T12:58:55;36.33;25.00
80676;SHT30;70041;46.088;18.268;2023-09-12T13:01:22;36.26;25.32
80676;SHT30;70041;46.088;18.268;2023-09-12T13:03:48;36.16;25.86
80676;SHT30;70041;46.088;18.268;2023-09-12T13:06:15;35.59;26.24
80676;SHT30;70041;46.088;18.268;2023-09-12T13:08:42;35.15;26.04
80676;SHT30;70041;46.088;18.268;2023-09-12T13:11:12;34.98;26.62
80676;SHT30;70041;46.088;18.268;2023-09-12T13:13:38;34.83;27.08
80676;SHT30;70041;46.088;18.268;2023-09-12T13:16:05;34.52;27.14
80676;SHT30;70041;46.088;18.268;2023-09-12T13:18:33;34.64;26.23
80676;SHT30;70041;46.088;18.268;2023-09-12T13:20:59;34.50;26.54
80676;SHT30;70041;46.088;18.268;2023-09-12T13:23:25;34.45;26.33
80676;SHT30;70041;46.088;18.268;2023-09-12T13:25:51;34.83;28.04
80676;SHT30;70041;46.088;18.268;2023-09-12T13:28:17;35.03;27.11
80676;SHT30;70041;46.088;18.268;2023-09-12T13:30:42;35.42;25.67
80676;SHT30;70041;46.088;18.268;2023-09-12T13:33:08;35.14;26.74
80676;SHT30;70041;46.088;18.268;2023-09-12T13:35:33;34.43;27.01
80676;SHT30;70041;46.088;18.268;2023-09-12T13:37:59;33.98;28.16
80676;SHT30;70041;46.088;18.268;2023-09-12T13:40:24;33.76;27.66
80676;SHT30;70041;46.088;18.268;2023-09-12T13:42:50;33.58;27.71
80676;SHT30;70041;46.088;18.268;2023-09-12T13:45:15;33.54;28.92
80676;SHT30;70041;46.088;18.268;2023-09-12T13:47:40;33.54;27.81
80676;SHT30;70041;46.088;18.268;2023-09-12T13:50:08;33.55;28.07
80676;SHT30;70041;46.088;18.268;2023-09-12T13:52:33;33.35;27.73
80676;SHT30;70041;46.088;18.268;2023-09-12T13:54:59;33.15;27.89
80676;SHT30;70041;46.088;18.268;2023-09-12T13:57:28;33.17;29.68
80676;SHT30;70041;46.088;18.268;2023-09-12T13:59:54;33.18;29.88
80676;SHT30;70041;46.088;18.268;2023-09-12T14:02:19;33.13;28.58
80676;SHT30;70041;46.088;18.268;2023-09-12T14:04:45;33.02;27.91
80676;SHT30;70041;46.088;18.268;2023-09-12T14:07:10;32.80;28.89
80676;SHT30;70041;46.088;18.268;2023-09-12T14:09:36;32.83;29.60
80676;SHT30;70041;46.088;18.268;2023-09-12T14:12:01;32.91;28.81
80676;SHT30;70041;46.088;18.268;2023-09-12T14:14:28;32.64;29.89
80676;SHT30;70041;46.088;18.268;2023-09-12T14:16:53;32.44;28.46
80676;SHT30;70041;46.088;18.268;2023-09-12T14:19:19;32.83;27.99
80676;SHT30;70041;46.088;18.268;2023-09-12T14:21:44;33.18;27.35
80676;SHT30;70041;46.088;18.268;2023-09-12T14:24:10;33.24;28.03
80676;SHT30;70041;46.088;18.268;2023-09-12T14:26:35;33.78;27.88
80676;SHT30;70041;46.088;18.268;2023-09-12T14:29:00;34.61;26.70
80676;SHT30;70041;46.088;18.268;2023-09-12T14:31:26;35.57;25.43
80676;SHT30;70041;46.088;18.268;2023-09-12T14:33:51;36.35;24.42
80676;SHT30;70041;46.088;18.268;2023-09-12T14:36:18;36.23;25.06
80676;SHT30;70041;46.088;18.268;2023-09-12T14:38:44;37.10;24.21
80676;SHT30;70041;46.088;18.268;2023-09-12T14:41:12;37.34;24.38
80676;SHT30;70041;46.088;18.268;2023-09-12T14:43:38;37.00;23.84
80676;SHT30;70041;46.088;18.268;2023-09-12T14:46:03;36.43;25.05
80676;SHT30;70041;46.088;18.268;2023-09-12T14:48:30;36.15;25.06
80676;SHT30;70041;46.088;18.268;2023-09-12T14:50:59;35.93;25.98
80676;SHT30;70041;46.088;18.268;2023-09-12T14:53:26;36.19;26.38
80676;SHT30;70041;46.088;18.268;2023-09-12T14:55:52;36.57;25.10
80676;SHT30;70041;46.088;18.268;2023-09-12T14:58:18;37.43;25.34
80676;SHT30;70041;46.088;18.268;2023-09-12T15:00:43;37.39;24.31
80676;SHT30;70041;46.088;18.268;2023-09-12T15:03:09;37.06;25.57
80676;SHT30;70041;46.088;18.268;2023-09-12T15:05:34;36.17;26.03
80676;SHT30;70041;46.088;18.268;2023-09-12T15:07:59;35.82;26.55
80676;SHT30;70041;46.088;18.268;2023-09-12T15:10:25;35.10;27.31
80676;SHT30;70041;46.088;18.268;2023-09-12T15:12:50;34.57;27.77
80676;SHT30;70041;46.088;18.268;2023-09-12T15:15:16;33.92;29.33
80676;SHT30;70041;46.088;18.268;2023-09-12T15:17:41;33.72;29.28
80676;SHT30;70041;46.088;18.268;2023-09-12T15:20:07;33.28;29.90
80676;SHT30;70041;46.088;18.268;2023-09-12T15:22:32;33.08;30.26
80676;SHT30;70041;46.088;18.268;2023-09-12T15:24:59;32.84;30.96
80676;SHT30;70041;46.088;18.268;2023-09-12T15:27:24;32.37;31.38